sensor_id;sensor_type;location;lat;lon;timestamp;P1;durP1;ratioP1;P2;durP2;ratioP2
22017;SDS011;11173;51.050;7.108;2024-01-15T00:02:39;30.10;;;17.70;;
22017;SDS011;11173;51.050;7.108;2024-01-15T00:12:39;29.95;;;16.10;;
22017;SDS011;11173;51.050;7.108;2024-01-15T00:22:40;33.17;;;18.27;;
22017;SDS011;11173;51.050;7.108;2024-01-15T00:32:40;33.80;;;17.30;;
22017;SDS011;11173;51.050;7.108;2024-01-15T00:42:40;32.15;;;18.83;;
22017;SDS011;11173;51.050;7.108;2024-01-15T00:52:40;36.42;;;19.75;;
22017;SDS011;11173;51.050;7.108;2024-01-15T01:02:41;28.63;;;16.90;;
22017;SDS011;11173;51.050;7.108;2024-01-15T01:12:41;30.98;;;17.75;;
22017;SDS011;11173;51.050;7.108;2024-01-15T01:22:42;29.27;;;16.98;;
22017;SDS011;11173;51.050;7.108;2024-01-15T01:32:42;32.47;;;18.98;;
22017;SDS011;11173;51.050;7.108;2024-01-15T01:42:42;28.85;;;17.55;;
22017;SDS011;11173;51.050;7.108;2024-01-15T01:52:42;28.60;;;17.48;;
22017;SDS011;11173;51.050;7.108;2024-01-15T02:02:43;29.40;;;17.55;;
22017;SDS011;11173;51.050;7.108;2024-01-15T02:12:43;27.45;;;17.95;;
22017;SDS011;11173;51.050;7.108;2024-01-15T02:22:44;32.28;;;18.17;;
22017;SDS011;11173;51.050;7.108;2024-01-15T02:32:44;27.00;;;16.52;;
22017;SDS011;11173;51.050;7.108;2024-01-15T02:42:45;27.77;;;16.05;;
22017;SDS011;11173;51.050;7.108;2024-01-15T02:52:45;27.48;;;15.38;;
22017;SDS011;11173;51.050;7.108;2024-01-15T03:02:46;33.55;;;19.23;;
22017;SDS011;11173;51.050;7.108;2024-01-15T03:12:46;27.70;;;16.67;;
22017;SDS011;11173;51.050;7.108;2024-01-15T03:22:46;26.52;;;16.23;;
22017;SDS011;11173;51.050;7.108;2024-01-15T03:32:47;20.38;;;12.25;;
22017;SDS011;11173;51.050;7.108;2024-01-15T03:42:47;24.50;;;14.75;;
22017;SDS011;11173;51.050;7.108;2024-01-15T03:52:47;22.90;;;14.93;;
22017;SDS011;11173;51.050;7.108;2024-01-15T04:02:48;19.55;;;11.85;;
22017;SDS011;11173;51.050;7.108;2024-01-15T04:12:48;24.73;;;15.15;;
22017;SDS011;11173;51.050;7.108;2024-01-15T04:22:48;20.23;;;13.45;;
22017;SDS011;11173;51.050;7.108;2024-01-15T04:32:48;23.88;;;15.60;;
22017;SDS011;11173;51.050;7.108;2024-01-15T04:42:48;18.30;;;12.57;;
22017;SDS011;11173;51.050;7.108;2024-01-15T04:52:49;16.85;;;12.25;;
22017;SDS011;11173;51.050;7.108;2024-01-15T05:02:49;19.30;;;13.20;;
22017;SDS011;11173;51.050;7.108;2024-01-15T05:12:50;20.48;;;12.98;;
22017;SDS011;11173;51.050;7.108;2024-01-15T05:22:50;16.63;;;11.15;;
22017;SDS011;11173;51.050;7.108;2024-01-15T05:32:50;16.40;;;10.35;;
22017;SDS011;11173;51.050;7.108;2024-01-15T05:42:50;16.98;;;11.52;;
22017;SDS011;11173;51.050;7.108;2024-01-15T05:52:51;13.57;;;9.80;;
22017;SDS011;11173;51.050;7.108;2024-01-15T06:02:52;15.55;;;10.55;;
22017;SDS011;11173;51.050;7.108;2024-01-15T06:13:00;14.68;;;9.02;;
22017;SDS011;11173;51.050;7.108;2024-01-15T06:23:02;11.27;;;9.25;;
22017;SDS011;11173;51.050;7.108;2024-01-15T06:33:02;11.73;;;9.48;;
22017;SDS011;11173;51.050;7.108;2024-01-15T06:43:02;16.80;;;9.90;;
22017;SDS011;11173;51.050;7.108;2024-01-15T06:53:03;13.80;;;8.77;;
22017;SDS011;11173;51.050;7.108;2024-01-15T07:03:03;14.63;;;9.77;;
22017;SDS011;11173;51.050;7.108;2024-01-15T07:13:03;12.15;;;9.45;;
22017;SDS011;11173;51.050;7.108;2024-01-15T07:23:05;12.88;;;9.85;;
22017;SDS011;11173;51.050;7.108;2024-01-15T07:33:07;12.63;;;9.95;;
22017;SDS011;11173;51.050;7.108;2024-01-15T07:43:07;13.18;;;9.80;;
22017;SDS011;11173;51.050;7.108;2024-01-15T07:53:07;10.55;;;9.43;;
22017;SDS011;11173;51.050;7.108;2024-01-15T08:03:07;14.38;;;10.18;;
22017;SDS011;11173;51.050;7.108;2024-01-15T08:13:10;15.30;;;11.50;;
22017;SDS011;11173;51.050;7.108;2024-01-15T08:23:11;16.30;;;12.77;;
22017;SDS011;11173;51.050;7.108;2024-01-15T08:33:11;16.85;;;12.55;;
22017;SDS011;11173;51.050;7.108;2024-01-15T08:43:11;22.05;;;14.55;;
22017;SDS011;11173;51.050;7.108;2024-01-15T08:53:12;18.63;;;13.45;;
22017;SDS011;11173;51.050;7.108;2024-01-15T09:03:12;18.95;;;13.60;;
22017;SDS011;11173;51.050;7.108;2024-01-15T09:13:13;16.85;;;12.38;;
22017;SDS011;11173;51.050;7.108;2024-01-15T09:23:13;19.52;;;12.57;;
22017;SDS011;11173;51.050;7.108;2024-01-15T09:33:13;17.85;;;12.50;;
22017;SDS011;11173;51.050;7.108;2024-01-15T09:43:14;16.85;;;12.02;;
22017;SDS011;11173;51.050;7.108;2024-01-15T09:53:14;14.80;;;11.43;;
22017;SDS011;11173;51.050;7.108;2024-01-15T10:03:15;12.57;;;9.85;;
22017;SDS011;11173;51.050;7.108;2024-01-15T10:13:15;8.20;;;7.40;;
22017;SDS011;11173;51.050;7.108;2024-01-15T10:23:16;7.97;;;7.18;;
22017;SDS011;11173;51.050;7.108;2024-01-15T10:33:16;6.30;;;5.75;;
22017;SDS011;11173;51.050;7.108;2024-01-15T10:43:22;7.00;;;5.35;;
22017;SDS011;11173;51.050;7.108;2024-01-15T10:53:22;5.40;;;4.90;;
22017;SDS011;11173;51.050;7.108;2024-01-15T11:03:23;5.78;;;5.28;;
22017;SDS011;11173;51.050;7.108;2024-01-15T11:33:34;4.13;;;3.83;;
22017;SDS011;11173;51.050;7.108;2024-01-15T11:43:34;3.90;;;3.63;;
22017;SDS011;11173;51.050;7.108;2024-01-15T11:53:45;3.40;;;2.60;;
22017;SDS011;11173;51.050;7.108;2024-01-15T12:03:47;2.95;;;2.58;;
22017;SDS011;11173;51.050;7.108;2024-01-15T12:13:47;3.63;;;2.63;;
22017;SDS011;11173;51.050;7.108;2024-01-15T12:23:48;3.17;;;2.63;;
22017;SDS011;11173;51.050;7.108;2024-01-15T12:33:49;3.70;;;3.10;;
22017;SDS011;11173;51.050;7.108;2024-01-15T12:43:49;3.95;;;3.63;;
22017;SDS011;11173;51.050;7.108;2024-01-15T12:53:49;4.55;;;3.97;;
22017;SDS011;11173;51.050;7.108;2024-01-15T13:03:50;6.03;;;4.53;;
22017;SDS011;11173;51.050;7.108;2024-01-15T13:13:50;4.47;;;4.05;;
22017;SDS011;11173;51.050;7.108;2024-01-15T13:23:50;4.18;;;3.45;;
22017;SDS011;11173;51.050;7.108;2024-01-15T13:33:51;6.03;;;3.27;;
22017;SDS011;11173;51.050;7.108;2024-01-15T13:43:51;5.22;;;3.05;;
22017;SDS011;11173;51.050;7.108;2024-01-15T13:53:54;4.22;;;3.08;;
22017;SDS011;11173;51.050;7.108;2024-01-15T14:03:54;3.85;;;2.83;;
22017;SDS011;11173;51.050;7.108;2024-01-15T14:13:55;3.35;;;3.00;;
22017;SDS011;11173;51.050;7.108;2024-01-15T14:23:55;3.10;;;2.78;;
22017;SDS011;11173;51.050;7.108;2024-01-15T14:33:55;4.05;;;2.53;;
22017;SDS011;11173;51.050;7.108;2024-01-15T14:43:55;3.00;;;2.70;;
22017;SDS011;11173;51.050;7.108;2024-01-15T14:53:57;2.55;;;2.45;;
22017;SDS011;11173;51.050;7.108;2024-01-15T15:03:57;3.03;;;2.83;;
22017;SDS011;11173;51.050;7.108;2024-01-15T15:13:58;3.75;;;3.22;;
22017;SDS011;11173;51.050;7.108;2024-01-15T15:24:00;2.63;;;2.50;;
22017;SDS011;11173;51.050;7.108;2024-01-15T15:34:00;3.08;;;2.80;;
22017;SDS011;11173;51.050;7.108;2024-01-15T15:44:00;3.30;;;3.10;;
22017;SDS011;11173;51.050;7.108;2024-01-15T15:54:01;2.60;;;2.50;;
22017;SDS011;11173;51.050;7.108;2024-01-15T16:04:01;3.83;;;2.90;;
22017;SDS011;11173;51.050;7.108;2024-01-15T16:14:03;2.60;;;2.50;;
22017;SDS011;11173;51.050;7.108;2024-01-15T16:24:04;3.08;;;2.88;;
22017;SDS011;11173;51.050;7.108;2024-01-15T16:34:05;4.05;;;3.65;;
22017;SDS011;11173;51.050;7.108;2024-01-15T16:44:05;3.50;;;3.20;;
22017;SDS011;11173;51.050;7.108;2024-01-15T16:54:06;4.70;;;4.18;;
22017;SDS011;11173;51.050;7.108;2024-01-15T17:04:07;4.05;;;3.65;;
22017;SDS011;11173;51.050;7.108;2024-01-15T17:14:08;6.97;;;3.90;;
22017;SDS011;11173;51.050;7.108;2024-01-15T17:24:08;7.15;;;5.38;;
22017;SDS011;11173;51.050;7.108;2024-01-15T17:34:08;7.05;;;5.05;;
22017;SDS011;11173;51.050;7.108;2024-01-15T17:44:10;5.55;;;4.10;;
22017;SDS011;11173;51.050;7.108;2024-01-15T17:54:10;4.35;;;4.05;;
22017;SDS011;11173;51.050;7.108;2024-01-15T18:04:10;6.22;;;4.35;;
22017;SDS011;11173;51.050;7.108;2024-01-15T18:14:12;4.90;;;4.40;;
22017;SDS011;11173;51.050;7.108;2024-01-15T18:24:13;6.75;;;4.18;;
22017;SDS011;11173;51.050;7.108;2024-01-15T18:34:13;5.18;;;3.80;;
22017;SDS011;11173;51.050;7.108;2024-01-15T18:44:14;7.88;;;3.95;;
22017;SDS011;11173;51.050;7.108;2024-01-15T18:54:14;5.90;;;3.90;;
22017;SDS011;11173;51.050;7.108;2024-01-15T19:04:14;3.92;;;3.50;;
22017;SDS011;11173;51.050;7.108;2024-01-15T19:14:15;6.78;;;3.60;;
22017;SDS011;11173;51.050;7.108;2024-01-15T19:24:15;4.95;;;4.03;;
22017;SDS011;11173;51.050;7.108;2024-01-15T19:34:16;6.43;;;3.95;;
22017;SDS011;11173;51.050;7.108;2024-01-15T19:44:17;10.20;;;5.95;;
22017;SDS011;11173;51.050;7.108;2024-01-15T19:54:18;8.07;;;5.38;;
22017;SDS011;11173;51.050;7.108;2024-01-15T20:04:19;10.52;;;6.85;;
22017;SDS011;11173;51.050;7.108;2024-01-15T20:14:19;8.57;;;6.47;;
22017;SDS011;11173;51.050;7.108;2024-01-15T20:24:20;12.00;;;7.38;;
22017;SDS011;11173;51.050;7.108;2024-01-15T20:34:23;12.02;;;7.88;;
22017;SDS011;11173;51.050;7.108;2024-01-15T20:44:23;9.52;;;7.68;;
22017;SDS011;11173;51.050;7.108;2024-01-15T20:54:24;10.93;;;8.63;;
22017;SDS011;11173;51.050;7.108;2024-01-15T21:04:24;8.73;;;7.53;;
22017;SDS011;11173;51.050;7.108;2024-01-15T21:14:25;9.75;;;6.72;;
22017;SDS011;11173;51.050;7.108;2024-01-15T21:24:25;7.20;;;6.38;;
22017;SDS011;11173;51.050;7.108;2024-01-15T21:34:27;9.65;;;5.30;;
22017;SDS011;11173;51.050;7.108;2024-01-15T21:44:28;8.05;;;5.13;;
22017;SDS011;11173;51.050;7.108;2024-01-15T21:54:28;9.80;;;5.55;;
22017;SDS011;11173;51.050;7.108;2024-01-15T22:04:28;4.63;;;3.97;;
22017;SDS011;11173;51.050;7.108;2024-01-15T22:14:29;10.10;;;5.13;;
22017;SDS011;11173;51.050;7.108;2024-01-15T22:24:29;7.72;;;4.65;;
22017;SDS011;11173;51.050;7.108;2024-01-15T22:34:29;5.68;;;5.03;;
22017;SDS011;11173;51.050;7.108;2024-01-15T22:44:30;8.10;;;5.32;;
22017;SDS011;11173;51.050;7.108;2024-01-15T22:54:30;6.38;;;5.75;;
22017;SDS011;11173;51.050;7.108;2024-01-15T23:04:30;6.35;;;5.53;;
22017;SDS011;11173;51.050;7.108;2024-01-15T23:14:30;8.32;;;6.10;;
22017;SDS011;11173;51.050;7.108;2024-01-15T23:24:31;7.32;;;6.43;;
22017;SDS011;11173;51.050;7.108;2024-01-15T23:34:31;6.60;;;6.00;;
22017;SDS011;11173;51.050;7.108;2024-01-15T23:44:31;8.57;;;5.85;;
22017;SDS011;11173;51.050;7.108;2024-01-15T23:54:31;11.32;;;5.90;;
